createdAt,value
2022-10-02T00:00:53.287Z,1
2022-10-02T00:02:49.523Z,1
2022-10-02T00:06:53.154Z,1
2022-10-02T00:08:49.708Z,1
2022-10-02T00:10:52.244Z,1
2022-10-02T00:12:49.156Z,1
2022-10-02T00:14:48.949Z,1
2022-10-02T00:16:56.578Z,1
2022-10-02T00:18:48.872Z,1
2022-10-02T00:20:53.186Z,1
2022-10-02T00:22:49.111Z,1
2022-10-02T00:24:49.478Z,1
2022-10-02T00:26:49.680Z,1
2022-10-02T00:28:48.859Z,1
2022-10-02T00:30:49.244Z,1
2022-10-02T00:32:49.527Z,1
2022-10-02T00:34:49.675Z,1
2022-10-02T00:36:53.464Z,1
2022-10-02T00:38:49.549Z,1
2022-10-02T00:40:49.534Z,1
2022-10-02T00:42:49.578Z,1
2022-10-02T00:44:49.425Z,1
2022-10-02T00:46:48.968Z,1
2022-10-02T00:48:49.772Z,1
2022-10-02T00:50:53.109Z,1
2022-10-02T00:52:49.473Z,1
2022-10-02T00:54:55.792Z,1
2022-10-02T00:56:49.369Z,1
2022-10-02T00:58:53.160Z,1
2022-10-02T01:00:49.676Z,1
2022-10-02T01:02:53.316Z,1
2022-10-02T01:04:48.969Z,1
2022-10-02T01:06:49.563Z,1
2022-10-02T01:08:51.045Z,1
2022-10-02T01:10:49.462Z,1
2022-10-02T01:12:53.186Z,1
2022-10-02T01:14:53.242Z,1
2022-10-02T01:16:52.483Z,1
2022-10-02T01:18:48.971Z,1
2022-10-02T01:20:49.030Z,1
2022-10-02T01:22:52.965Z,1
2022-10-02T01:24:49.649Z,1
2022-10-02T01:26:48.942Z,1
2022-10-02T01:28:49.578Z,1
2022-10-02T01:30:53.113Z,1
2022-10-02T01:32:49.829Z,1
2022-10-02T01:34:49.750Z,1
2022-10-02T01:36:53.008Z,1
2022-10-02T01:38:48.968Z,1
2022-10-02T01:40:55.926Z,1
2022-10-02T01:42:52.945Z,1
2022-10-02T01:44:52.756Z,1
2022-10-02T01:46:49.314Z,1
2022-10-02T01:48:52.926Z,1
2022-10-02T01:50:52.382Z,1
2022-10-02T01:52:56.210Z,1
2022-10-02T01:54:49.561Z,1
2022-10-02T01:56:49.334Z,1
2022-10-02T01:58:49.439Z,1
2022-10-02T02:00:49.115Z,1
2022-10-02T02:02:54.015Z,1
2022-10-02T02:04:53.203Z,1
2022-10-02T02:06:53.116Z,1
2022-10-02T02:08:52.940Z,1
2022-10-02T02:10:49.822Z,1
2022-10-02T02:12:49.991Z,1
2022-10-02T02:14:56.308Z,1
2022-10-02T02:18:48.863Z,1
2022-10-02T02:20:59.809Z,1
2022-10-02T02:22:49.412Z,1
2022-10-02T02:24:52.976Z,1
2022-10-02T02:26:48.998Z,1
2022-10-02T02:28:54.449Z,1
2022-10-02T02:30:49.550Z,1
2022-10-02T02:32:56.052Z,1
2022-10-02T02:34:48.833Z,1
2022-10-02T02:36:49.966Z,1
2022-10-02T02:38:52.746Z,1
2022-10-02T02:40:49.016Z,1
2022-10-02T02:42:49.681Z,1
2022-10-02T02:44:49.351Z,1
2022-10-02T02:46:53.076Z,1
2022-10-02T02:48:49.004Z,1
2022-10-02T02:50:49.062Z,1
2022-10-02T02:52:54.033Z,1
2022-10-02T02:54:50.006Z,1
2022-10-02T02:56:48.974Z,1
2022-10-02T02:58:48.849Z,1
2022-10-02T03:00:49.048Z,1
2022-10-02T03:02:48.833Z,1
2022-10-02T03:04:50.726Z,1
2022-10-02T03:06:48.977Z,1
2022-10-02T03:08:54.831Z,1
2022-10-02T03:10:48.850Z,1
2022-10-02T03:12:49.022Z,1
2022-10-02T03:14:54.153Z,1
2022-10-02T03:16:48.864Z,1
2022-10-02T03:18:49.600Z,1
2022-10-02T03:20:49.285Z,1
2022-10-02T03:22:48.960Z,1
2022-10-02T03:24:53.151Z,1
2022-10-02T03:26:53.028Z,1
2022-10-02T03:28:56.233Z,1
2022-10-02T03:30:49.117Z,1
2022-10-02T03:32:49.491Z,1
2022-10-02T03:34:51.129Z,1
2022-10-02T03:36:49.412Z,1
2022-10-02T03:39:06.434Z,1
2022-10-02T03:40:56.217Z,1
2022-10-02T03:42:52.993Z,1
2022-10-02T03:44:53.055Z,1
2022-10-02T03:46:56.348Z,1
2022-10-02T03:48:48.883Z,1
2022-10-02T03:50:49.621Z,1
2022-10-02T03:52:49.197Z,1
2022-10-02T03:54:50.466Z,1
2022-10-02T03:56:53.152Z,1
2022-10-02T03:58:49.748Z,1
2022-10-02T04:00:49.643Z,1
2022-10-02T04:02:53.381Z,1
2022-10-02T04:04:49.625Z,1
2022-10-02T04:06:52.190Z,1
2022-10-02T04:08:49.577Z,1
2022-10-02T04:10:49.574Z,1
2022-10-02T04:12:49.439Z,1
2022-10-02T04:14:49.563Z,1
2022-10-02T04:16:49.447Z,1
2022-10-02T04:18:49.682Z,1
2022-10-02T04:20:50.996Z,1
2022-10-02T04:22:49.737Z,1
2022-10-02T04:24:53.166Z,1
2022-10-02T04:26:49.445Z,1
2022-10-02T04:28:49.120Z,1
2022-10-02T04:30:56.162Z,1
2022-10-02T04:32:49.006Z,1
2022-10-02T04:34:49.356Z,1
2022-10-02T04:36:49.797Z,1
2022-10-02T04:38:49.459Z,1
2022-10-02T04:40:52.878Z,1
2022-10-02T04:42:49.831Z,0
2022-10-02T04:44:49.950Z,0
2022-10-02T04:46:52.622Z,0.1
2022-10-02T04:48:49.743Z,0.1
2022-10-02T04:50:49.648Z,0.1
2022-10-02T04:52:53.113Z,0.2
2022-10-02T04:54:49.761Z,0.4
2022-10-02T04:56:56.224Z,0.7
2022-10-02T04:58:49.607Z,1.1
2022-10-02T05:00:50.553Z,1.8
2022-10-02T05:02:49.112Z,2.1
2022-10-02T05:04:53.304Z,3
2022-10-02T05:06:49.987Z,4.1
2022-10-02T05:08:49.718Z,5
2022-10-02T05:10:49.544Z,6.7
2022-10-02T05:12:49.496Z,9.5
2022-10-02T05:14:50.664Z,12.2
2022-10-02T05:16:49.768Z,15.6
2022-10-02T05:18:49.688Z,20.1
2022-10-02T05:20:57.030Z,21.1
2022-10-02T05:24:49.026Z,30
2022-10-02T05:26:48.978Z,33.1
2022-10-02T05:28:48.890Z,34.8
2022-10-02T05:30:49.760Z,36.6
2022-10-02T05:32:48.987Z,40.4
2022-10-02T05:34:49.680Z,49.4
2022-10-02T05:36:49.028Z,70.1
2022-10-02T05:38:49.318Z,85.6
2022-10-02T05:40:49.378Z,85.6
2022-10-02T05:42:53.212Z,104.6
2022-10-02T05:44:49.888Z,104.6
2022-10-02T05:46:49.562Z,115.6
2022-10-02T05:48:53.104Z,141.2
2022-10-02T05:50:53.042Z,181.3
2022-10-02T05:52:49.827Z,221.4
2022-10-02T05:54:49.051Z,257.2
2022-10-02T05:56:52.877Z,298.9
2022-10-02T05:58:49.666Z,314.2
2022-10-02T06:00:48.942Z,314.2
2022-10-02T06:02:49.851Z,314.2
2022-10-02T06:04:49.019Z,330.3
2022-10-02T06:06:49.509Z,330.3
2022-10-02T06:08:52.960Z,330.3
2022-10-02T06:10:49.726Z,330.3
2022-10-02T06:12:53.426Z,330.3
2022-10-02T06:14:50.757Z,365
2022-10-02T06:16:49.528Z,383.8
2022-10-02T06:20:55.748Z,403.4
2022-10-02T06:22:49.683Z,445.9
2022-10-02T06:24:49.229Z,492.7
2022-10-02T06:26:53.049Z,424.1
2022-10-02T06:28:49.592Z,383.8
2022-10-02T06:30:57.574Z,424.1
2022-10-02T06:32:50.170Z,468.7
2022-10-02T06:34:48.859Z,544.6
2022-10-02T06:36:53.074Z,601.8
2022-10-02T06:38:49.411Z,601.8
2022-10-02T06:40:56.011Z,601.8
2022-10-02T06:42:53.154Z,601.8
2022-10-02T06:44:49.371Z,665.1
2022-10-02T06:46:53.087Z,699.2
2022-10-02T06:48:49.042Z,735.1
2022-10-02T06:50:49.386Z,772.8
2022-10-02T06:52:49.016Z,735.1
2022-10-02T06:54:49.088Z,699.2
2022-10-02T06:56:52.852Z,699.2
2022-10-02T06:58:49.596Z,735.1
2022-10-02T07:00:56.263Z,812.4
2022-10-02T07:02:56.177Z,854.1
2022-10-02T07:04:53.033Z,897.8
2022-10-02T07:06:48.938Z,854.1
2022-10-02T07:08:48.878Z,943.9
2022-10-02T07:10:49.724Z,1096.6
2022-10-02T07:12:53.089Z,1043.1
2022-10-02T07:14:48.897Z,992.3
2022-10-02T07:16:49.534Z,992.3
2022-10-02T07:18:49.285Z,992.3
2022-10-02T07:20:49.437Z,992.3
2022-10-02T07:22:49.388Z,992.3
2022-10-02T07:24:49.264Z,992.3
2022-10-02T07:26:52.722Z,992.3
2022-10-02T07:28:48.891Z,943.9
2022-10-02T07:30:49.182Z,943.9
2022-10-02T07:32:49.801Z,1043.1
2022-10-02T07:34:56.381Z,992.3
2022-10-02T07:36:53.099Z,992.3
2022-10-02T07:40:49.474Z,1043.1
2022-10-02T07:42:49.555Z,992.3
2022-10-02T07:44:48.872Z,992.3
2022-10-02T07:46:49.443Z,943.9
2022-10-02T07:48:53.213Z,943.9
2022-10-02T07:50:49.560Z,1043.1
2022-10-02T07:52:50.817Z,1096.6
2022-10-02T07:54:50.060Z,1043.1
2022-10-02T07:56:49.355Z,1096.6
2022-10-02T07:58:48.884Z,1212
2022-10-02T08:00:49.038Z,1339.4
2022-10-02T08:02:53.389Z,1339.4
2022-10-02T08:04:48.864Z,1339.4
2022-10-02T08:06:49.663Z,1212
2022-10-02T08:10:48.892Z,1274.1
2022-10-02T08:12:55.310Z,1274.1
2022-10-02T08:14:48.875Z,1339.4
2022-10-02T08:16:48.914Z,1339.4
2022-10-02T08:18:48.960Z,1212
2022-10-02T08:20:48.998Z,1096.6
2022-10-02T08:22:48.858Z,1096.6
2022-10-02T08:24:49.141Z,1096.6
2022-10-02T08:26:49.138Z,992.3
2022-10-02T08:28:49.649Z,992.3
2022-10-02T08:30:49.291Z,1152.9
2022-10-02T08:35:15.907Z,1556.2
2022-10-02T08:50:47.906Z,2697.3
2022-10-02T08:52:50.283Z,1408.1
2022-10-02T08:56:50.932Z,1274.1
2022-10-02T08:58:53.489Z,1152.9
2022-10-02T09:00:49.890Z,1274.1
2022-10-02T09:02:53.864Z,1339.4
2022-10-02T09:06:53.997Z,1719.9
2022-10-02T09:08:57.075Z,1636
2022-10-02T09:10:50.350Z,1274.1
2022-10-02T09:12:57.574Z,1274.1
2022-10-02T09:14:50.359Z,1339.4
2022-10-02T09:16:53.526Z,1636
2022-10-02T09:18:50.659Z,1556.2
2022-10-02T09:20:50.539Z,1480.3
2022-10-02T09:22:50.482Z,1212
2022-10-02T09:24:49.831Z,992.3
2022-10-02T09:26:53.995Z,992.3
2022-10-02T09:28:50.093Z,1274.1
2022-10-02T09:30:49.478Z,897.8
2022-10-02T09:32:50.481Z,632.7
2022-10-02T09:34:53.641Z,854.1
2022-10-02T09:36:53.962Z,1556.2
2022-10-02T09:38:50.052Z,1408.1
2022-10-02T09:40:50.191Z,1339.4
2022-10-02T09:42:50.667Z,897.8
2022-10-02T09:44:50.445Z,1274.1
2022-10-02T09:46:54.107Z,1900.7
2022-10-02T09:48:54.015Z,1998.2
2022-10-02T09:50:50.623Z,2208.3
2022-10-02T09:52:49.761Z,1719.9
2022-10-02T09:54:50.702Z,2100.6
2022-10-02T09:56:49.848Z,2981
2022-10-02T09:58:50.622Z,3641
2022-10-02T10:00:50.030Z,3294.5
2022-10-02T10:02:50.457Z,1339.4
2022-10-02T10:05:04.862Z,1212
2022-10-02T10:06:50.384Z,2440.6
2022-10-02T10:08:53.937Z,3463.4
2022-10-02T10:10:50.590Z,4914.8
2022-10-02T10:12:50.386Z,4230.2
2022-10-02T10:16:53.969Z,6634.2
2022-10-02T10:18:50.652Z,5431.7
2022-10-02T10:20:53.028Z,6002.9
2022-10-02T10:22:49.849Z,6974.4
2022-10-02T10:24:53.937Z,8103.1
2022-10-02T10:26:50.616Z,13359.7
2022-10-02T10:28:56.090Z,14044.7
2022-10-02T10:30:57.200Z,18958.4
2022-10-02T10:32:50.405Z,18958.4
2022-10-02T10:34:50.489Z,18033.7
2022-10-02T10:36:55.871Z,18033.7
2022-10-02T10:38:54.029Z,17154.2
2022-10-02T10:40:49.949Z,13359.7
2022-10-02T10:43:07.339Z,4675.1
2022-10-02T10:44:50.247Z,3463.4
2022-10-02T10:46:54.664Z,4447.1
2022-10-02T10:48:50.784Z,4023.9
2022-10-02T10:50:50.031Z,3827.6
2022-10-02T10:52:54.538Z,4914.8
2022-10-02T10:54:57.007Z,9897.1
2022-10-02T10:56:49.956Z,9897.1
2022-10-02T10:58:50.493Z,9897.1
2022-10-02T11:00:49.960Z,8955.3
2022-10-02T11:02:50.742Z,10404.6
2022-10-02T11:04:50.263Z,5710.1
2022-10-02T11:06:57.823Z,4675.1
2022-10-02T11:08:49.891Z,3827.6
2022-10-02T11:10:50.665Z,3641
2022-10-02T11:12:50.280Z,3294.5
2022-10-02T11:14:53.691Z,8103.1
2022-10-02T11:16:50.851Z,6974.4
2022-10-02T11:22:53.851Z,6002.9
2022-10-02T11:24:50.484Z,4675.1
2022-10-02T11:26:53.889Z,2697.3
2022-10-02T11:28:53.687Z,468.7
2022-10-02T11:30:50.645Z,854.1
2022-10-02T11:32:50.668Z,2565.7
2022-10-02T11:34:50.608Z,1636
2022-10-02T11:36:54.981Z,1096.6
2022-10-02T11:38:50.379Z,2835.6
2022-10-02T11:40:50.587Z,3133.8
2022-10-02T11:42:50.383Z,4447.1
2022-10-02T11:44:50.033Z,4447.1
2022-10-02T11:46:50.359Z,3463.4
2022-10-02T11:48:57.114Z,3463.4
2022-10-02T11:50:50.441Z,3827.6
2022-10-02T11:52:49.921Z,4447.1
2022-10-02T11:54:49.948Z,3641
2022-10-02T11:56:49.892Z,2981
2022-10-02T11:58:53.884Z,3641
2022-10-02T12:00:50.015Z,3827.6
2022-10-02T12:02:53.957Z,4230.2
2022-10-02T12:04:49.872Z,4675.1
2022-10-02T12:06:50.443Z,3294.5
2022-10-02T12:08:53.888Z,2440.6
2022-10-02T12:10:50.490Z,2981
2022-10-02T12:12:49.904Z,4675.1
2022-10-02T12:14:49.838Z,6002.9
2022-10-02T12:16:50.800Z,3294.5
2022-10-02T12:18:50.035Z,4447.1
2022-10-02T12:20:50.362Z,4447.1
2022-10-02T12:22:50.754Z,5431.7
2022-10-02T12:24:54.072Z,13359.7
2022-10-02T12:26:50.856Z,9897.1
2022-10-02T12:28:50.331Z,7707.9
2022-10-02T12:30:50.863Z,6310.7
2022-10-02T12:32:50.349Z,5431.7
2022-10-02T12:34:50.266Z,8518.5
2022-10-02T12:36:50.602Z,8103.1
2022-10-02T12:38:50.790Z,8103.1
2022-10-02T12:40:50.408Z,11498.8
2022-10-02T12:42:50.859Z,12708.2
2022-10-02T12:44:53.994Z,11498.8
2022-10-02T12:48:50.079Z,56954
2022-10-02T12:50:50.392Z,56954
2022-10-02T12:52:53.822Z,32859.6
2022-10-02T12:54:53.788Z,11498.8
2022-10-02T12:56:50.580Z,6634.2
2022-10-02T12:58:53.636Z,4023.9
2022-10-02T13:00:49.987Z,6974.4
2022-10-02T13:03:00.642Z,3463.4
2022-10-02T13:04:53.886Z,2100.6
2022-10-02T13:06:54.009Z,1480.3
2022-10-02T13:08:53.860Z,1636
2022-10-02T13:10:49.875Z,2697.3
2022-10-02T13:12:49.963Z,2321.6
2022-10-02T13:14:50.408Z,1808
2022-10-02T13:16:50.024Z,1274.1
2022-10-02T13:18:50.075Z,1274.1
2022-10-02T13:20:53.871Z,1480.3
2022-10-02T13:22:50.426Z,1900.7
2022-10-02T13:24:50.557Z,2440.6
2022-10-02T13:26:50.554Z,2981
2022-10-02T13:28:53.232Z,2697.3
2022-10-02T13:30:54.029Z,2208.3
2022-10-02T13:32:49.873Z,1808
2022-10-02T13:34:54.004Z,1480.3
2022-10-02T13:36:53.160Z,1900.7
2022-10-02T13:38:49.985Z,1998.2
2022-10-02T13:40:53.986Z,1339.4
2022-10-02T13:42:50.579Z,1480.3
2022-10-02T13:44:50.069Z,2321.6
2022-10-02T13:46:49.950Z,3294.5
2022-10-02T13:48:50.824Z,3463.4
2022-10-02T13:50:50.676Z,3641
2022-10-02T13:52:53.968Z,2440.6
2022-10-02T13:54:56.336Z,1408.1
2022-10-02T13:56:50.669Z,812.4
2022-10-02T14:00:49.963Z,544.6
2022-10-02T14:02:54.963Z,601.8
2022-10-02T14:04:49.904Z,601.8
2022-10-02T14:06:50.619Z,735.1
2022-10-02T14:08:49.875Z,699.2
2022-10-02T14:10:50.063Z,772.8
2022-10-02T14:12:49.992Z,897.8
2022-10-02T14:14:53.926Z,1096.6
2022-10-02T14:16:50.688Z,1096.6
2022-10-02T14:18:53.403Z,812.4
2022-10-02T14:20:50.771Z,812.4
2022-10-02T14:22:50.181Z,1096.6
2022-10-02T14:24:50.735Z,1212
2022-10-02T14:26:53.972Z,1339.4
2022-10-02T14:28:53.096Z,1274.1
2022-10-02T14:30:50.549Z,1274.1
2022-10-02T14:32:50.541Z,1339.4
2022-10-02T14:34:50.678Z,1274.1
2022-10-02T14:36:49.971Z,943.9
2022-10-02T14:38:50.932Z,1096.6
2022-10-02T14:40:50.387Z,1274.1
2022-10-02T14:42:50.555Z,1274.1
2022-10-02T14:44:49.850Z,1408.1
2022-10-02T14:46:49.937Z,1556.2
2022-10-02T14:48:50.839Z,1636
2022-10-02T14:50:50.344Z,1556.2
2022-10-02T14:52:50.825Z,1636
2022-10-02T14:54:50.049Z,1556.2
2022-10-02T14:56:50.753Z,1719.9
2022-10-02T14:58:50.859Z,2100.6
2022-10-02T15:00:53.979Z,2565.7
2022-10-02T15:02:50.560Z,2321.6
2022-10-02T15:04:53.984Z,1900.7
2022-10-02T15:06:50.929Z,1408.1
2022-10-02T15:08:49.939Z,1043.1
2022-10-02T15:10:57.131Z,897.8
2022-10-02T15:12:50.815Z,897.8
2022-10-02T15:14:50.126Z,1480.3
2022-10-02T15:16:50.155Z,1900.7
2022-10-02T15:18:50.449Z,1900.7
2022-10-02T15:20:49.976Z,2321.6
2022-10-02T15:22:50.626Z,3133.8
2022-10-02T15:24:54.036Z,2835.6
2022-10-02T15:28:49.970Z,1408.1
2022-10-02T15:30:50.250Z,1152.9
2022-10-02T15:32:50.745Z,943.9
2022-10-02T15:34:53.883Z,665.1
2022-10-02T15:36:50.446Z,601.8
2022-10-02T15:38:53.720Z,518
2022-10-02T15:40:50.368Z,424.1
2022-10-02T15:42:57.475Z,403.4
2022-10-02T15:44:53.877Z,365
2022-10-02T15:46:50.354Z,365
2022-10-02T15:48:57.159Z,347.2
2022-10-02T15:50:50.621Z,365
2022-10-02T15:52:50.373Z,403.4
2022-10-02T15:54:50.539Z,383.8
2022-10-02T15:56:49.827Z,365
2022-10-02T15:58:50.420Z,365
2022-10-02T16:00:50.671Z,403.4
2022-10-02T16:02:53.719Z,424.1
2022-10-02T16:04:53.800Z,365
2022-10-02T16:06:49.979Z,298.9
2022-10-02T16:08:49.840Z,298.9
2022-10-02T16:10:50.786Z,347.2
2022-10-02T16:12:50.844Z,424.1
2022-10-02T16:14:49.981Z,424.1
2022-10-02T16:16:50.102Z,365
2022-10-02T16:20:50.736Z,190.6
2022-10-02T16:22:50.462Z,156
2022-10-02T16:24:50.011Z,172.4
2022-10-02T16:26:50.563Z,181.3
2022-10-02T16:28:50.584Z,200.3
2022-10-02T16:30:50.557Z,190.6
2022-10-02T16:32:53.968Z,172.4
2022-10-02T16:34:50.422Z,210.6
2022-10-02T16:36:57.109Z,210.6
2022-10-02T16:38:54.105Z,148.4
2022-10-02T16:40:53.888Z,94.6
2022-10-02T16:42:50.856Z,70.1
2022-10-02T16:44:50.696Z,57.4
2022-10-02T16:46:53.880Z,38.5
2022-10-02T16:48:57.302Z,21.1
2022-10-02T16:50:49.848Z,8.2
2022-10-02T16:52:50.775Z,8.2
2022-10-02T16:54:49.237Z,11
2022-10-02T16:56:57.059Z,17.3
2022-10-02T16:58:50.521Z,13.5
2022-10-02T17:00:54.142Z,7.4
2022-10-02T17:02:49.417Z,4.7
2022-10-02T17:04:53.675Z,3.7
2022-10-02T17:06:57.173Z,2.5
2022-10-02T17:08:54.523Z,1.8
2022-10-02T17:10:49.837Z,1.6
2022-10-02T17:12:50.454Z,1.6
2022-10-02T17:14:57.203Z,1.2
2022-10-02T17:16:49.901Z,1
2022-10-02T17:18:50.447Z,0.7
2022-10-02T17:20:50.834Z,0.4
2022-10-02T17:22:50.493Z,0.2
2022-10-02T17:24:56.839Z,0
2022-10-02T17:26:49.834Z,0
2022-10-02T17:28:50.671Z,0
2022-10-02T17:30:50.638Z,0
2022-10-02T17:32:49.824Z,0
2022-10-02T17:34:53.784Z,0
2022-10-02T17:36:50.506Z,1
2022-10-02T17:38:53.708Z,1
2022-10-02T17:40:50.651Z,1
2022-10-02T17:42:50.723Z,1
2022-10-02T17:44:50.549Z,1
2022-10-02T17:46:54.176Z,1
2022-10-02T17:48:49.871Z,1
2022-10-02T17:50:50.279Z,1
2022-10-02T17:52:54.028Z,1
2022-10-02T17:54:53.807Z,1
2022-10-02T17:56:50.122Z,1
2022-10-02T17:58:50.635Z,1
2022-10-02T18:00:53.226Z,1
2022-10-02T18:02:49.849Z,1
2022-10-02T18:04:50.574Z,1
2022-10-02T18:06:49.913Z,1
2022-10-02T18:08:53.993Z,1
2022-10-02T18:10:49.960Z,1
2022-10-02T18:12:51.167Z,1
2022-10-02T18:14:50.652Z,1
2022-10-02T18:16:53.996Z,1
2022-10-02T18:18:54.074Z,1
2022-10-02T18:20:50.384Z,1
2022-10-02T18:22:50.528Z,1
2022-10-02T18:24:50.678Z,1
2022-10-02T18:26:49.847Z,1
2022-10-02T18:28:50.655Z,1
2022-10-02T18:30:50.317Z,1
2022-10-02T18:32:50.622Z,1
2022-10-02T18:34:49.985Z,1
2022-10-02T18:36:50.060Z,1
2022-10-02T18:38:54.157Z,1
2022-10-02T18:40:53.732Z,1
2022-10-02T18:42:50.242Z,1
2022-10-02T18:44:53.490Z,1
2022-10-02T18:46:49.939Z,1
2022-10-02T18:48:54.231Z,1
2022-10-02T18:50:50.579Z,1
2022-10-02T18:52:53.785Z,1
2022-10-02T18:54:50.636Z,1
2022-10-02T18:56:49.934Z,1
2022-10-02T18:58:49.854Z,1
2022-10-02T19:00:50.990Z,1
2022-10-02T19:02:50.739Z,1
2022-10-02T19:04:54.199Z,1
2022-10-02T19:06:50.883Z,1
2022-10-02T19:08:50.795Z,1
2022-10-02T19:10:50.237Z,1
2022-10-02T19:12:50.571Z,1
2022-10-02T19:14:50.552Z,1
2022-10-02T19:16:50.290Z,1
2022-10-02T19:18:50.866Z,1
2022-10-02T19:20:53.793Z,1
2022-10-02T19:22:54.122Z,1
2022-10-02T19:24:57.346Z,1
2022-10-02T19:26:49.974Z,1
2022-10-02T19:28:49.853Z,1
2022-10-02T19:30:58.136Z,1
2022-10-02T19:32:50.587Z,1
2022-10-02T19:34:52.757Z,1
2022-10-02T19:36:50.120Z,1
2022-10-02T19:38:49.851Z,1
2022-10-02T19:40:49.862Z,1
2022-10-02T19:43:00.669Z,1
2022-10-02T19:44:50.360Z,1
2022-10-02T19:46:52.434Z,1
2022-10-02T19:48:50.353Z,1
2022-10-02T19:51:04.282Z,1
2022-10-02T19:52:50.349Z,1
2022-10-02T19:54:54.182Z,1
2022-10-02T19:58:50.772Z,1
2022-10-02T20:00:54.256Z,1
2022-10-02T20:02:57.140Z,1
2022-10-02T20:04:50.144Z,1
2022-10-02T20:06:50.364Z,1
2022-10-02T20:08:54.552Z,1
2022-10-02T20:10:50.123Z,1
2022-10-02T20:12:50.903Z,1
2022-10-02T20:14:50.766Z,1
2022-10-02T20:16:54.020Z,1
2022-10-02T20:18:50.480Z,1
2022-10-02T20:20:50.513Z,1
2022-10-02T20:22:50.991Z,1
2022-10-02T20:24:50.698Z,1
2022-10-02T20:26:49.968Z,1
2022-10-02T20:28:50.918Z,1
2022-10-02T20:32:50.531Z,1
2022-10-02T20:34:50.458Z,1
2022-10-02T20:36:50.004Z,1
2022-10-02T20:38:51.445Z,1
2022-10-02T20:40:50.618Z,1
2022-10-02T20:42:50.999Z,1
2022-10-02T20:44:53.921Z,1
2022-10-02T20:49:06.755Z,1
2022-10-02T20:50:57.473Z,1
2022-10-02T20:52:54.206Z,1
2022-10-02T20:54:50.228Z,1
2022-10-02T20:56:50.481Z,1
2022-10-02T20:58:57.407Z,1
2022-10-02T21:00:54.239Z,1
2022-10-02T21:02:50.506Z,1
2022-10-02T21:04:57.180Z,1
2022-10-02T21:06:50.631Z,1
2022-10-02T21:08:57.327Z,1
2022-10-02T21:10:50.026Z,1
2022-10-02T21:12:50.712Z,1
2022-10-02T21:14:57.288Z,1
2022-10-02T21:16:50.096Z,1
2022-10-02T21:18:57.101Z,1
2022-10-02T21:20:51.706Z,1
2022-10-02T21:22:49.860Z,1
2022-10-02T21:24:50.534Z,1
2022-10-02T21:26:50.532Z,1
2022-10-02T21:28:51.630Z,1
2022-10-02T21:30:54.004Z,1
2022-10-02T21:32:57.230Z,1
2022-10-02T21:34:49.864Z,1
2022-10-02T21:36:54.114Z,1
2022-10-02T21:38:50.116Z,1
2022-10-02T21:40:50.555Z,1
2022-10-02T21:44:50.409Z,1
2022-10-02T21:46:53.709Z,1
2022-10-02T21:48:50.619Z,1
2022-10-02T21:50:49.870Z,1
2022-10-02T21:52:54.193Z,1
2022-10-02T21:54:49.913Z,1
2022-10-02T21:56:53.661Z,1
2022-10-02T22:00:53.930Z,1
2022-10-02T22:02:50.868Z,1
2022-10-02T22:04:50.775Z,1
2022-10-02T22:06:54.457Z,1
2022-10-02T22:08:53.999Z,1
2022-10-02T22:10:50.071Z,1
2022-10-02T22:12:50.512Z,1
2022-10-02T22:14:49.966Z,1
2022-10-02T22:16:50.423Z,1
2022-10-02T22:18:54.141Z,1
2022-10-02T22:20:49.899Z,1
2022-10-02T22:22:53.315Z,1
2022-10-02T22:24:50.551Z,1
2022-10-02T22:26:51.007Z,1
2022-10-02T22:28:54.237Z,1
2022-10-02T22:30:50.124Z,1
2022-10-02T22:32:54.659Z,1
2022-10-02T22:34:50.585Z,1
2022-10-02T22:36:51.564Z,1
2022-10-02T22:40:54.026Z,1
2022-10-02T22:42:57.130Z,1
2022-10-02T22:44:50.491Z,1
2022-10-02T22:46:50.714Z,1
2022-10-02T22:48:50.607Z,1
2022-10-02T22:50:51.493Z,1
2022-10-02T22:52:54.188Z,1
2022-10-02T22:54:54.244Z,1
2022-10-02T22:56:49.962Z,1
2022-10-02T22:58:50.493Z,1
2022-10-02T23:00:50.655Z,1
2022-10-02T23:02:50.463Z,1
2022-10-02T23:04:57.324Z,1
2022-10-02T23:06:54.258Z,1
2022-10-02T23:08:54.078Z,1
2022-10-02T23:10:53.861Z,1
2022-10-02T23:12:57.397Z,1
2022-10-02T23:14:50.384Z,1
2022-10-02T23:16:51.171Z,1
2022-10-02T23:18:50.434Z,1
2022-10-02T23:20:49.874Z,1
2022-10-02T23:22:53.031Z,1
2022-10-02T23:24:57.294Z,1
2022-10-02T23:26:57.166Z,1
2022-10-02T23:28:57.255Z,1
2022-10-02T23:30:50.914Z,1
2022-10-02T23:32:50.429Z,1
2022-10-02T23:34:50.681Z,1
2022-10-02T23:36:50.595Z,1
2022-10-02T23:38:50.363Z,1
2022-10-02T23:40:50.207Z,1
2022-10-02T23:42:50.025Z,1
2022-10-02T23:44:50.096Z,1
2022-10-02T23:46:54.066Z,1
2022-10-02T23:48:50.662Z,1
2022-10-02T23:50:50.481Z,1
2022-10-02T23:54:50.736Z,1
2022-10-02T23:56:54.413Z,1
2022-10-02T23:58:51.076Z,1
